sensor_id;sensor_type;location;lat;lon;timestamp;P1;durP1;ratioP1;P2;durP2;ratioP2
59054;SDS011;44845;51.444;7.460;2023-11-19T00:01:07;0.70;;;0.20;;
59054;SDS011;44845;51.444;7.460;2023-11-19T00:03:32;0.60;;;0.30;;
59054;SDS011;44845;51.444;7.460;2023-11-19T00:05:58;0.40;;;0.30;;
59054;SDS011;44845;51.444;7.460;2023-11-19T00:08:24;0.15;;;0.15;;
59054;SDS011;44845;51.444;7.460;2023-11-19T00:10:49;1.85;;;0.30;;
59054;SDS011;44845;51.444;7.460;2023-11-19T00:13:16;0.73;;;0.20;;
59054;SDS011;44845;51.444;7.460;2023-11-19T00:15:41;2.00;;;0.30;;
59054;SDS011;44845;51.444;7.460;2023-11-19T00:18:07;0.52;;;0.30;;
59054;SDS011;44845;51.444;7.460;2023-11-19T00:20:32;0.30;;;0.30;;
59054;SDS011;44845;51.444;7.460;2023-11-19T00:22:57;0.52;;;0.28;;
59054;SDS011;44845;51.444;7.460;2023-11-19T00:25:23;0.95;;;0.30;;
59054;SDS011;44845;51.444;7.460;2023-11-19T00:27:48;0.25;;;0.25;;
59054;SDS011;44845;51.444;7.460;2023-11-19T00:30:15;0.35;;;0.32;;
59054;SDS011;44845;51.444;7.460;2023-11-19T00:32:41;0.52;;;0.35;;
59054;SDS011;44845;51.444;7.460;2023-11-19T00:35:07;0.60;;;0.50;;
59054;SDS011;44845;51.444;7.460;2023-11-19T00:37:33;0.60;;;0.40;;
59054;SDS011;44845;51.444;7.460;2023-11-19T00:39:59;1.02;;;0.57;;
59054;SDS011;44845;51.444;7.460;2023-11-19T00:42:24;0.30;;;0.30;;
59054;SDS011;44845;51.444;7.460;2023-11-19T00:44:50;0.63;;;0.40;;
59054;SDS011;44845;51.444;7.460;2023-11-19T00:47:15;0.65;;;0.52;;
59054;SDS011;44845;51.444;7.460;2023-11-19T00:49:41;1.02;;;0.57;;
59054;SDS011;44845;51.444;7.460;2023-11-19T00:52:07;1.23;;;0.50;;
59054;SDS011;44845;51.444;7.460;2023-11-19T00:54:33;0.60;;;0.50;;
59054;SDS011;44845;51.444;7.460;2023-11-19T00:56:58;0.40;;;0.40;;
59054;SDS011;44845;51.444;7.460;2023-11-19T00:59:24;1.83;;;0.55;;
59054;SDS011;44845;51.444;7.460;2023-11-19T01:01:49;1.52;;;0.40;;
59054;SDS011;44845;51.444;7.460;2023-11-19T01:04:16;2.75;;;0.50;;
59054;SDS011;44845;51.444;7.460;2023-11-19T01:06:41;4.85;;;0.60;;
59054;SDS011;44845;51.444;7.460;2023-11-19T01:09:07;3.63;;;0.57;;
59054;SDS011;44845;51.444;7.460;2023-11-19T01:11:34;2.58;;;0.95;;
59054;SDS011;44845;51.444;7.460;2023-11-19T01:13:59;0.73;;;0.68;;
59054;SDS011;44845;51.444;7.460;2023-11-19T01:16:25;2.72;;;0.90;;
59054;SDS011;44845;51.444;7.460;2023-11-19T01:18:51;5.85;;;0.70;;
59054;SDS011;44845;51.444;7.460;2023-11-19T01:21:17;1.50;;;1.00;;
59054;SDS011;44845;51.444;7.460;2023-11-19T01:23:43;1.73;;;0.80;;
59054;SDS011;44845;51.444;7.460;2023-11-19T01:26:09;0.85;;;0.85;;
59054;SDS011;44845;51.444;7.460;2023-11-19T01:28:35;1.00;;;0.95;;
59054;SDS011;44845;51.444;7.460;2023-11-19T01:31:01;1.42;;;1.23;;
59054;SDS011;44845;51.444;7.460;2023-11-19T01:33:26;1.85;;;1.00;;
59054;SDS011;44845;51.444;7.460;2023-11-19T01:35:53;1.30;;;1.10;;
59054;SDS011;44845;51.444;7.460;2023-11-19T01:38:18;2.08;;;1.00;;
59054;SDS011;44845;51.444;7.460;2023-11-19T01:40:43;2.10;;;1.00;;
59054;SDS011;44845;51.444;7.460;2023-11-19T01:43:09;1.73;;;0.73;;
59054;SDS011;44845;51.444;7.460;2023-11-19T01:45:36;1.70;;;0.88;;
59054;SDS011;44845;51.444;7.460;2023-11-19T01:48:03;3.25;;;0.95;;
59054;SDS011;44845;51.444;7.460;2023-11-19T01:50:29;1.48;;;0.60;;
59054;SDS011;44845;51.444;7.460;2023-11-19T01:52:56;2.38;;;0.80;;
59054;SDS011;44845;51.444;7.460;2023-11-19T01:55:25;3.65;;;0.70;;
59054;SDS011;44845;51.444;7.460;2023-11-19T01:57:53;4.30;;;0.88;;
59054;SDS011;44845;51.444;7.460;2023-11-19T02:00:20;1.63;;;0.85;;
59054;SDS011;44845;51.444;7.460;2023-11-19T02:02:46;1.25;;;0.90;;
59054;SDS011;44845;51.444;7.460;2023-11-19T02:05:13;0.85;;;0.82;;
59054;SDS011;44845;51.444;7.460;2023-11-19T02:07:38;2.10;;;1.00;;
59054;SDS011;44845;51.444;7.460;2023-11-19T02:10:04;4.75;;;0.73;;
59054;SDS011;44845;51.444;7.460;2023-11-19T02:12:30;0.55;;;0.55;;
59054;SDS011;44845;51.444;7.460;2023-11-19T02:15:00;0.90;;;0.52;;
59054;SDS011;44845;51.444;7.460;2023-11-19T02:17:27;2.65;;;0.73;;
59054;SDS011;44845;51.444;7.460;2023-11-19T02:19:59;0.70;;;0.70;;
59054;SDS011;44845;51.444;7.460;2023-11-19T02:22:25;1.25;;;0.65;;
59054;SDS011;44845;51.444;7.460;2023-11-19T02:24:54;1.35;;;0.50;;
59054;SDS011;44845;51.444;7.460;2023-11-19T02:27:29;1.52;;;0.80;;
59054;SDS011;44845;51.444;7.460;2023-11-19T02:30:03;3.03;;;0.98;;
59054;SDS011;44845;51.444;7.460;2023-11-19T02:32:31;2.28;;;1.00;;
59054;SDS011;44845;51.444;7.460;2023-11-19T02:34:56;1.83;;;0.90;;
59054;SDS011;44845;51.444;7.460;2023-11-19T02:37:21;4.10;;;1.10;;
59054;SDS011;44845;51.444;7.460;2023-11-19T02:39:47;4.93;;;0.90;;
59054;SDS011;44845;51.444;7.460;2023-11-19T02:42:12;4.93;;;1.10;;
59054;SDS011;44845;51.444;7.460;2023-11-19T02:44:38;6.50;;;0.90;;
59054;SDS011;44845;51.444;7.460;2023-11-19T02:47:05;3.42;;;0.93;;
59054;SDS011;44845;51.444;7.460;2023-11-19T02:49:33;4.22;;;1.13;;
59054;SDS011;44845;51.444;7.460;2023-11-19T02:51:58;4.18;;;0.80;;
59054;SDS011;44845;51.444;7.460;2023-11-19T02:54:24;5.18;;;0.88;;
59054;SDS011;44845;51.444;7.460;2023-11-19T02:56:52;2.20;;;0.85;;
59054;SDS011;44845;51.444;7.460;2023-11-19T02:59:20;5.43;;;1.10;;
59054;SDS011;44845;51.444;7.460;2023-11-19T03:01:52;7.65;;;1.17;;
59054;SDS011;44845;51.444;7.460;2023-11-19T03:04:18;7.97;;;1.20;;
59054;SDS011;44845;51.444;7.460;2023-11-19T03:06:46;4.68;;;0.70;;
59054;SDS011;44845;51.444;7.460;2023-11-19T03:09:11;5.22;;;0.80;;
59054;SDS011;44845;51.444;7.460;2023-11-19T03:11:37;5.15;;;1.08;;
59054;SDS011;44845;51.444;7.460;2023-11-19T03:14:03;4.32;;;1.27;;
59054;SDS011;44845;51.444;7.460;2023-11-19T03:16:29;8.40;;;0.73;;
59054;SDS011;44845;51.444;7.460;2023-11-19T03:18:54;10.48;;;1.27;;
59054;SDS011;44845;51.444;7.460;2023-11-19T03:21:26;7.28;;;1.00;;
59054;SDS011;44845;51.444;7.460;2023-11-19T03:23:53;7.05;;;1.13;;
59054;SDS011;44845;51.444;7.460;2023-11-19T03:26:18;9.48;;;1.25;;
59054;SDS011;44845;51.444;7.460;2023-11-19T03:28:43;11.48;;;1.63;;
59054;SDS011;44845;51.444;7.460;2023-11-19T03:31:09;8.43;;;1.70;;
59054;SDS011;44845;51.444;7.460;2023-11-19T03:33:34;9.48;;;1.73;;
59054;SDS011;44845;51.444;7.460;2023-11-19T03:35:59;7.72;;;1.50;;
59054;SDS011;44845;51.444;7.460;2023-11-19T03:38:24;9.55;;;1.52;;
59054;SDS011;44845;51.444;7.460;2023-11-19T03:40:50;8.00;;;1.65;;
59054;SDS011;44845;51.444;7.460;2023-11-19T03:43:16;8.13;;;1.58;;
59054;SDS011;44845;51.444;7.460;2023-11-19T03:45:41;7.85;;;1.42;;
59054;SDS011;44845;51.444;7.460;2023-11-19T03:48:06;9.25;;;1.60;;
59054;SDS011;44845;51.444;7.460;2023-11-19T03:50:32;8.73;;;1.63;;
59054;SDS011;44845;51.444;7.460;2023-11-19T03:52:57;12.68;;;1.52;;
59054;SDS011;44845;51.444;7.460;2023-11-19T03:55:23;11.23;;;1.90;;
59054;SDS011;44845;51.444;7.460;2023-11-19T03:57:48;9.05;;;1.90;;
59054;SDS011;44845;51.444;7.460;2023-11-19T04:00:14;13.77;;;1.83;;
59054;SDS011;44845;51.444;7.460;2023-11-19T04:02:40;13.70;;;1.65;;
59054;SDS011;44845;51.444;7.460;2023-11-19T04:05:06;12.60;;;1.50;;
59054;SDS011;44845;51.444;7.460;2023-11-19T04:07:31;12.90;;;1.98;;
59054;SDS011;44845;51.444;7.460;2023-11-19T04:09:57;11.43;;;2.20;;
59054;SDS011;44845;51.444;7.460;2023-11-19T04:12:22;16.65;;;3.05;;
59054;SDS011;44845;51.444;7.460;2023-11-19T04:14:48;10.30;;;2.35;;
59054;SDS011;44845;51.444;7.460;2023-11-19T04:17:13;16.10;;;2.40;;
59054;SDS011;44845;51.444;7.460;2023-11-19T04:19:38;12.60;;;2.00;;
59054;SDS011;44845;51.444;7.460;2023-11-19T04:22:06;9.20;;;2.25;;
59054;SDS011;44845;51.444;7.460;2023-11-19T04:24:34;14.50;;;2.10;;
59054;SDS011;44845;51.444;7.460;2023-11-19T04:27:00;15.25;;;1.77;;
59054;SDS011;44845;51.444;7.460;2023-11-19T04:29:25;13.63;;;2.00;;
59054;SDS011;44845;51.444;7.460;2023-11-19T04:31:51;8.23;;;1.98;;
59054;SDS011;44845;51.444;7.460;2023-11-19T04:34:16;12.98;;;2.15;;
59054;SDS011;44845;51.444;7.460;2023-11-19T04:36:41;9.15;;;1.90;;
59054;SDS011;44845;51.444;7.460;2023-11-19T04:39:08;16.60;;;1.63;;
59054;SDS011;44845;51.444;7.460;2023-11-19T04:41:47;9.20;;;1.67;;
59054;SDS011;44845;51.444;7.460;2023-11-19T04:44:16;10.35;;;1.92;;
59054;SDS011;44845;51.444;7.460;2023-11-19T04:46:42;9.90;;;1.90;;
59054;SDS011;44845;51.444;7.460;2023-11-19T04:49:14;17.35;;;2.05;;
59054;SDS011;44845;51.444;7.460;2023-11-19T04:51:40;12.98;;;2.38;;
59054;SDS011;44845;51.444;7.460;2023-11-19T04:54:07;13.32;;;2.83;;
59054;SDS011;44845;51.444;7.460;2023-11-19T04:56:33;14.05;;;2.35;;
59054;SDS011;44845;51.444;7.460;2023-11-19T04:58:59;13.52;;;2.33;;
59054;SDS011;44845;51.444;7.460;2023-11-19T05:01:24;16.77;;;2.53;;
59054;SDS011;44845;51.444;7.460;2023-11-19T05:03:50;15.57;;;3.00;;
59054;SDS011;44845;51.444;7.460;2023-11-19T05:06:16;14.70;;;2.20;;
59054;SDS011;44845;51.444;7.460;2023-11-19T05:08:42;21.30;;;3.08;;
59054;SDS011;44845;51.444;7.460;2023-11-19T05:11:07;16.13;;;3.03;;
59054;SDS011;44845;51.444;7.460;2023-11-19T05:13:32;17.35;;;2.70;;
59054;SDS011;44845;51.444;7.460;2023-11-19T05:15:58;13.90;;;2.97;;
59054;SDS011;44845;51.444;7.460;2023-11-19T05:18:23;20.60;;;3.58;;
59054;SDS011;44845;51.444;7.460;2023-11-19T05:20:48;19.33;;;2.85;;
59054;SDS011;44845;51.444;7.460;2023-11-19T05:23:14;19.75;;;2.88;;
59054;SDS011;44845;51.444;7.460;2023-11-19T05:25:39;18.27;;;3.08;;
59054;SDS011;44845;51.444;7.460;2023-11-19T05:28:04;10.65;;;2.33;;
59054;SDS011;44845;51.444;7.460;2023-11-19T05:30:30;15.20;;;3.58;;
59054;SDS011;44845;51.444;7.460;2023-11-19T05:32:55;16.80;;;2.38;;
59054;SDS011;44845;51.444;7.460;2023-11-19T05:35:20;16.08;;;2.70;;
59054;SDS011;44845;51.444;7.460;2023-11-19T05:37:48;13.57;;;2.08;;
59054;SDS011;44845;51.444;7.460;2023-11-19T05:40:15;21.88;;;3.55;;
59054;SDS011;44845;51.444;7.460;2023-11-19T05:42:40;16.02;;;2.67;;
59054;SDS011;44845;51.444;7.460;2023-11-19T05:45:06;17.30;;;2.78;;
59054;SDS011;44845;51.444;7.460;2023-11-19T05:47:33;12.80;;;2.85;;
59054;SDS011;44845;51.444;7.460;2023-11-19T05:49:58;22.48;;;3.67;;
59054;SDS011;44845;51.444;7.460;2023-11-19T05:52:23;17.20;;;2.70;;
59054;SDS011;44845;51.444;7.460;2023-11-19T05:54:49;23.00;;;3.92;;
59054;SDS011;44845;51.444;7.460;2023-11-19T05:57:17;23.08;;;3.53;;
59054;SDS011;44845;51.444;7.460;2023-11-19T05:59:47;20.27;;;2.95;;
59054;SDS011;44845;51.444;7.460;2023-11-19T06:02:13;19.58;;;3.30;;
59054;SDS011;44845;51.444;7.460;2023-11-19T06:04:38;22.40;;;3.03;;
59054;SDS011;44845;51.444;7.460;2023-11-19T06:07:04;25.13;;;3.80;;
59054;SDS011;44845;51.444;7.460;2023-11-19T06:09:30;23.08;;;3.40;;
59054;SDS011;44845;51.444;7.460;2023-11-19T06:11:57;20.10;;;2.83;;
59054;SDS011;44845;51.444;7.460;2023-11-19T06:14:22;24.23;;;3.25;;
59054;SDS011;44845;51.444;7.460;2023-11-19T06:16:49;18.38;;;3.08;;
59054;SDS011;44845;51.444;7.460;2023-11-19T06:19:16;17.08;;;2.92;;
59054;SDS011;44845;51.444;7.460;2023-11-19T06:21:42;20.42;;;2.70;;
59054;SDS011;44845;51.444;7.460;2023-11-19T06:24:07;24.48;;;3.67;;
59054;SDS011;44845;51.444;7.460;2023-11-19T06:26:33;13.43;;;2.28;;
59054;SDS011;44845;51.444;7.460;2023-11-19T06:28:59;15.35;;;2.65;;
59054;SDS011;44845;51.444;7.460;2023-11-19T06:31:25;17.83;;;2.85;;
59054;SDS011;44845;51.444;7.460;2023-11-19T06:33:50;20.90;;;3.13;;
59054;SDS011;44845;51.444;7.460;2023-11-19T06:36:15;21.70;;;3.65;;
59054;SDS011;44845;51.444;7.460;2023-11-19T06:38:43;19.25;;;2.95;;
59054;SDS011;44845;51.444;7.460;2023-11-19T06:41:09;21.85;;;3.33;;
59054;SDS011;44845;51.444;7.460;2023-11-19T06:43:34;24.05;;;3.10;;
59054;SDS011;44845;51.444;7.460;2023-11-19T06:46:00;19.88;;;2.85;;
59054;SDS011;44845;51.444;7.460;2023-11-19T06:48:26;21.35;;;2.90;;
59054;SDS011;44845;51.444;7.460;2023-11-19T06:50:52;25.40;;;2.90;;
59054;SDS011;44845;51.444;7.460;2023-11-19T06:53:19;19.33;;;2.42;;
59054;SDS011;44845;51.444;7.460;2023-11-19T06:55:45;17.27;;;2.75;;
59054;SDS011;44845;51.444;7.460;2023-11-19T06:58:10;14.98;;;2.75;;
59054;SDS011;44845;51.444;7.460;2023-11-19T07:00:37;20.60;;;3.88;;
59054;SDS011;44845;51.444;7.460;2023-11-19T07:03:02;18.65;;;3.10;;
59054;SDS011;44845;51.444;7.460;2023-11-19T07:05:27;18.80;;;3.00;;
59054;SDS011;44845;51.444;7.460;2023-11-19T07:07:53;25.35;;;3.72;;
59054;SDS011;44845;51.444;7.460;2023-11-19T07:10:19;21.25;;;3.28;;
59054;SDS011;44845;51.444;7.460;2023-11-19T07:12:44;21.85;;;3.03;;
59054;SDS011;44845;51.444;7.460;2023-11-19T07:15:10;18.83;;;2.90;;
59054;SDS011;44845;51.444;7.460;2023-11-19T07:17:35;26.48;;;3.55;;
59054;SDS011;44845;51.444;7.460;2023-11-19T07:20:01;26.98;;;2.85;;
59054;SDS011;44845;51.444;7.460;2023-11-19T07:22:27;17.83;;;2.58;;
59054;SDS011;44845;51.444;7.460;2023-11-19T07:24:54;23.77;;;3.63;;
59054;SDS011;44845;51.444;7.460;2023-11-19T07:27:19;21.38;;;3.35;;
59054;SDS011;44845;51.444;7.460;2023-11-19T07:29:45;17.58;;;2.63;;
59054;SDS011;44845;51.444;7.460;2023-11-19T07:32:11;15.73;;;2.72;;
59054;SDS011;44845;51.444;7.460;2023-11-19T07:34:38;20.38;;;2.65;;
59054;SDS011;44845;51.444;7.460;2023-11-19T07:37:04;14.90;;;3.13;;
59054;SDS011;44845;51.444;7.460;2023-11-19T07:39:30;17.08;;;3.10;;
59054;SDS011;44845;51.444;7.460;2023-11-19T07:41:55;17.17;;;3.17;;
59054;SDS011;44845;51.444;7.460;2023-11-19T07:44:21;27.50;;;3.58;;
59054;SDS011;44845;51.444;7.460;2023-11-19T07:46:46;17.70;;;3.50;;
59054;SDS011;44845;51.444;7.460;2023-11-19T07:49:13;23.23;;;2.85;;
59054;SDS011;44845;51.444;7.460;2023-11-19T07:51:38;22.55;;;3.55;;
59054;SDS011;44845;51.444;7.460;2023-11-19T07:54:04;21.55;;;3.30;;
59054;SDS011;44845;51.444;7.460;2023-11-19T07:56:29;15.52;;;2.63;;
59054;SDS011;44845;51.444;7.460;2023-11-19T07:58:54;17.02;;;2.85;;
59054;SDS011;44845;51.444;7.460;2023-11-19T08:01:20;17.30;;;3.13;;
59054;SDS011;44845;51.444;7.460;2023-11-19T08:03:45;18.92;;;2.67;;
59054;SDS011;44845;51.444;7.460;2023-11-19T08:06:11;21.90;;;2.97;;
59054;SDS011;44845;51.444;7.460;2023-11-19T08:08:36;22.92;;;2.67;;
59054;SDS011;44845;51.444;7.460;2023-11-19T08:11:03;18.45;;;2.83;;
59054;SDS011;44845;51.444;7.460;2023-11-19T08:13:30;24.58;;;3.05;;
59054;SDS011;44845;51.444;7.460;2023-11-19T08:15:56;15.75;;;3.33;;
59054;SDS011;44845;51.444;7.460;2023-11-19T08:18:23;21.08;;;3.10;;
59054;SDS011;44845;51.444;7.460;2023-11-19T08:20:49;19.98;;;3.30;;
59054;SDS011;44845;51.444;7.460;2023-11-19T08:23:17;21.92;;;2.97;;
59054;SDS011;44845;51.444;7.460;2023-11-19T08:25:43;21.95;;;3.35;;
59054;SDS011;44845;51.444;7.460;2023-11-19T08:28:09;19.48;;;3.50;;
59054;SDS011;44845;51.444;7.460;2023-11-19T08:30:34;24.15;;;3.17;;
59054;SDS011;44845;51.444;7.460;2023-11-19T08:33:00;22.15;;;3.38;;
59054;SDS011;44845;51.444;7.460;2023-11-19T08:35:28;21.77;;;3.08;;
59054;SDS011;44845;51.444;7.460;2023-11-19T08:37:53;24.48;;;3.80;;
59054;SDS011;44845;51.444;7.460;2023-11-19T08:40:19;27.05;;;4.20;;
59054;SDS011;44845;51.444;7.460;2023-11-19T08:42:45;19.55;;;2.92;;
59054;SDS011;44845;51.444;7.460;2023-11-19T08:45:10;24.67;;;3.97;;
59054;SDS011;44845;51.444;7.460;2023-11-19T08:47:39;22.20;;;3.67;;
59054;SDS011;44845;51.444;7.460;2023-11-19T08:50:05;27.30;;;3.72;;
59054;SDS011;44845;51.444;7.460;2023-11-19T08:52:31;25.25;;;4.88;;
59054;SDS011;44845;51.444;7.460;2023-11-19T08:54:57;27.05;;;4.05;;
59054;SDS011;44845;51.444;7.460;2023-11-19T08:57:22;21.80;;;3.97;;
59054;SDS011;44845;51.444;7.460;2023-11-19T08:59:47;26.63;;;3.50;;
59054;SDS011;44845;51.444;7.460;2023-11-19T09:02:13;26.83;;;3.78;;
59054;SDS011;44845;51.444;7.460;2023-11-19T09:04:38;25.38;;;3.50;;
59054;SDS011;44845;51.444;7.460;2023-11-19T09:07:03;27.00;;;4.18;;
59054;SDS011;44845;51.444;7.460;2023-11-19T09:09:29;18.15;;;3.38;;
59054;SDS011;44845;51.444;7.460;2023-11-19T09:11:55;18.95;;;3.42;;
59054;SDS011;44845;51.444;7.460;2023-11-19T09:14:20;22.98;;;3.83;;
59054;SDS011;44845;51.444;7.460;2023-11-19T09:16:50;27.45;;;3.58;;
59054;SDS011;44845;51.444;7.460;2023-11-19T09:19:16;21.05;;;3.72;;
59054;SDS011;44845;51.444;7.460;2023-11-19T09:21:42;22.75;;;3.22;;
59054;SDS011;44845;51.444;7.460;2023-11-19T09:24:08;24.00;;;3.30;;
59054;SDS011;44845;51.444;7.460;2023-11-19T09:26:33;26.50;;;3.92;;
59054;SDS011;44845;51.444;7.460;2023-11-19T09:28:59;25.02;;;3.72;;
59054;SDS011;44845;51.444;7.460;2023-11-19T09:31:24;23.63;;;3.35;;
59054;SDS011;44845;51.444;7.460;2023-11-19T09:33:50;26.85;;;3.88;;
59054;SDS011;44845;51.444;7.460;2023-11-19T09:36:15;24.85;;;4.13;;
59054;SDS011;44845;51.444;7.460;2023-11-19T09:38:41;28.02;;;3.83;;
59054;SDS011;44845;51.444;7.460;2023-11-19T09:41:07;25.02;;;3.40;;
59054;SDS011;44845;51.444;7.460;2023-11-19T09:43:35;31.15;;;3.60;;
59054;SDS011;44845;51.444;7.460;2023-11-19T09:46:04;22.33;;;3.28;;
59054;SDS011;44845;51.444;7.460;2023-11-19T09:48:35;19.08;;;3.40;;
59054;SDS011;44845;51.444;7.460;2023-11-19T09:51:10;23.45;;;3.88;;
59054;SDS011;44845;51.444;7.460;2023-11-19T09:53:36;22.10;;;3.42;;
59054;SDS011;44845;51.444;7.460;2023-11-19T09:56:03;15.32;;;2.55;;
59054;SDS011;44845;51.444;7.460;2023-11-19T09:58:30;20.60;;;3.40;;
59054;SDS011;44845;51.444;7.460;2023-11-19T10:00:58;21.38;;;3.88;;
59054;SDS011;44845;51.444;7.460;2023-11-19T10:03:25;31.95;;;3.92;;
59054;SDS011;44845;51.444;7.460;2023-11-19T10:05:52;22.80;;;3.47;;
59054;SDS011;44845;51.444;7.460;2023-11-19T10:08:19;20.02;;;3.72;;
59054;SDS011;44845;51.444;7.460;2023-11-19T10:10:45;19.25;;;3.35;;
59054;SDS011;44845;51.444;7.460;2023-11-19T10:13:10;23.35;;;3.30;;
59054;SDS011;44845;51.444;7.460;2023-11-19T10:15:36;18.30;;;3.03;;
59054;SDS011;44845;51.444;7.460;2023-11-19T10:18:02;23.90;;;3.33;;
59054;SDS011;44845;51.444;7.460;2023-11-19T10:20:34;25.25;;;3.50;;
59054;SDS011;44845;51.444;7.460;2023-11-19T10:23:02;26.65;;;3.40;;
59054;SDS011;44845;51.444;7.460;2023-11-19T10:25:29;29.23;;;3.65;;
59054;SDS011;44845;51.444;7.460;2023-11-19T10:27:55;21.35;;;4.15;;
59054;SDS011;44845;51.444;7.460;2023-11-19T10:30:22;17.60;;;3.30;;
59054;SDS011;44845;51.444;7.460;2023-11-19T10:38:25;22.65;;;4.20;;
59054;SDS011;44845;51.444;7.460;2023-11-19T10:40:51;21.95;;;3.28;;
59054;SDS011;44845;51.444;7.460;2023-11-19T10:43:18;22.88;;;3.42;;
59054;SDS011;44845;51.444;7.460;2023-11-19T10:45:44;19.95;;;3.42;;
59054;SDS011;44845;51.444;7.460;2023-11-19T10:48:09;29.35;;;4.15;;
59054;SDS011;44845;51.444;7.460;2023-11-19T10:50:36;22.23;;;3.42;;
59054;SDS011;44845;51.444;7.460;2023-11-19T10:53:02;24.05;;;3.97;;
59054;SDS011;44845;51.444;7.460;2023-11-19T10:55:32;20.50;;;3.83;;
59054;SDS011;44845;51.444;7.460;2023-11-19T10:58:03;25.02;;;3.88;;
59054;SDS011;44845;51.444;7.460;2023-11-19T11:00:32;20.58;;;3.28;;
59054;SDS011;44845;51.444;7.460;2023-11-19T11:03:10;29.95;;;6.38;;
59054;SDS011;44845;51.444;7.460;2023-11-19T11:05:40;19.15;;;3.90;;
59054;SDS011;44845;51.444;7.460;2023-11-19T11:08:06;19.75;;;4.15;;
59054;SDS011;44845;51.444;7.460;2023-11-19T11:10:32;22.30;;;3.42;;
59054;SDS011;44845;51.444;7.460;2023-11-19T11:13:04;16.58;;;3.55;;
59054;SDS011;44845;51.444;7.460;2023-11-19T11:15:31;24.02;;;3.78;;
59054;SDS011;44845;51.444;7.460;2023-11-19T11:18:01;23.27;;;4.10;;
59054;SDS011;44845;51.444;7.460;2023-11-19T11:20:30;20.15;;;3.25;;
59054;SDS011;44845;51.444;7.460;2023-11-19T11:23:09;16.48;;;3.47;;
59054;SDS011;44845;51.444;7.460;2023-11-19T11:33:41;22.58;;;3.55;;
59054;SDS011;44845;51.444;7.460;2023-11-19T11:38:48;29.92;;;4.35;;
59054;SDS011;44845;51.444;7.460;2023-11-19T11:41:15;18.33;;;3.08;;
59054;SDS011;44845;51.444;7.460;2023-11-19T11:43:45;26.92;;;3.35;;
59054;SDS011;44845;51.444;7.460;2023-11-19T11:46:53;23.25;;;3.90;;
59054;SDS011;44845;51.444;7.460;2023-11-19T11:49:05;23.63;;;4.38;;
59054;SDS011;44845;51.444;7.460;2023-11-19T11:54:30;23.27;;;2.70;;
59054;SDS011;44845;51.444;7.460;2023-11-19T12:02:05;16.20;;;2.70;;
59054;SDS011;44845;51.444;7.460;2023-11-19T12:04:34;18.55;;;3.47;;
59054;SDS011;44845;51.444;7.460;2023-11-19T12:07:33;21.77;;;2.92;;
59054;SDS011;44845;51.444;7.460;2023-11-19T12:10:05;21.10;;;3.42;;
59054;SDS011;44845;51.444;7.460;2023-11-19T12:12:33;17.13;;;3.10;;
59054;SDS011;44845;51.444;7.460;2023-11-19T12:15:06;15.30;;;2.67;;
59054;SDS011;44845;51.444;7.460;2023-11-19T12:17:41;19.00;;;2.72;;
59054;SDS011;44845;51.444;7.460;2023-11-19T12:20:09;19.08;;;3.35;;
59054;SDS011;44845;51.444;7.460;2023-11-19T12:22:37;22.02;;;3.17;;
59054;SDS011;44845;51.444;7.460;2023-11-19T12:25:04;23.63;;;3.50;;
59054;SDS011;44845;51.444;7.460;2023-11-19T12:27:31;21.02;;;3.28;;
59054;SDS011;44845;51.444;7.460;2023-11-19T12:29:58;20.67;;;3.53;;
59054;SDS011;44845;51.444;7.460;2023-11-19T12:32:24;13.55;;;3.15;;
59054;SDS011;44845;51.444;7.460;2023-11-19T12:34:50;16.60;;;2.38;;
59054;SDS011;44845;51.444;7.460;2023-11-19T12:37:15;18.63;;;3.08;;
59054;SDS011;44845;51.444;7.460;2023-11-19T12:39:40;19.20;;;2.60;;
59054;SDS011;44845;51.444;7.460;2023-11-19T12:42:06;19.08;;;2.90;;
59054;SDS011;44845;51.444;7.460;2023-11-19T12:44:31;24.77;;;3.38;;
59054;SDS011;44845;51.444;7.460;2023-11-19T12:49:34;18.20;;;2.83;;
59054;SDS011;44845;51.444;7.460;2023-11-19T12:52:00;19.98;;;2.78;;
59054;SDS011;44845;51.444;7.460;2023-11-19T12:54:32;16.17;;;2.88;;
59054;SDS011;44845;51.444;7.460;2023-11-19T12:57:01;17.85;;;2.60;;
59054;SDS011;44845;51.444;7.460;2023-11-19T12:59:26;20.00;;;2.72;;
59054;SDS011;44845;51.444;7.460;2023-11-19T13:01:56;21.33;;;2.90;;
59054;SDS011;44845;51.444;7.460;2023-11-19T13:04:28;15.15;;;2.90;;
59054;SDS011;44845;51.444;7.460;2023-11-19T13:06:56;15.75;;;2.30;;
59054;SDS011;44845;51.444;7.460;2023-11-19T13:09:22;23.67;;;2.65;;
59054;SDS011;44845;51.444;7.460;2023-11-19T13:11:49;13.40;;;2.47;;
59054;SDS011;44845;51.444;7.460;2023-11-19T13:14:15;19.75;;;3.10;;
59054;SDS011;44845;51.444;7.460;2023-11-19T13:16:41;13.68;;;2.88;;
59054;SDS011;44845;51.444;7.460;2023-11-19T13:19:07;18.30;;;2.85;;
59054;SDS011;44845;51.444;7.460;2023-11-19T13:21:33;14.40;;;2.88;;
59054;SDS011;44845;51.444;7.460;2023-11-19T13:23:59;20.67;;;2.22;;
59054;SDS011;44845;51.444;7.460;2023-11-19T13:26:24;17.48;;;3.03;;
59054;SDS011;44845;51.444;7.460;2023-11-19T13:28:50;14.80;;;2.22;;
59054;SDS011;44845;51.444;7.460;2023-11-19T13:31:15;16.08;;;2.30;;
59054;SDS011;44845;51.444;7.460;2023-11-19T13:33:41;13.80;;;2.25;;
59054;SDS011;44845;51.444;7.460;2023-11-19T13:36:07;14.77;;;2.15;;
59054;SDS011;44845;51.444;7.460;2023-11-19T13:38:34;13.00;;;2.40;;
59054;SDS011;44845;51.444;7.460;2023-11-19T13:41:03;14.20;;;2.70;;
59054;SDS011;44845;51.444;7.460;2023-11-19T13:43:34;13.32;;;1.77;;
59054;SDS011;44845;51.444;7.460;2023-11-19T13:45:59;12.70;;;1.40;;
59054;SDS011;44845;51.444;7.460;2023-11-19T13:48:24;12.85;;;2.22;;
59054;SDS011;44845;51.444;7.460;2023-11-19T13:50:51;9.90;;;1.73;;
59054;SDS011;44845;51.444;7.460;2023-11-19T13:53:17;12.30;;;1.95;;
59054;SDS011;44845;51.444;7.460;2023-11-19T13:55:42;7.85;;;1.60;;
59054;SDS011;44845;51.444;7.460;2023-11-19T13:58:08;12.30;;;1.65;;
59054;SDS011;44845;51.444;7.460;2023-11-19T14:00:34;10.75;;;2.10;;
59054;SDS011;44845;51.444;7.460;2023-11-19T14:02:59;15.38;;;2.03;;
59054;SDS011;44845;51.444;7.460;2023-11-19T14:05:25;13.82;;;2.10;;
59054;SDS011;44845;51.444;7.460;2023-11-19T14:07:51;11.55;;;2.75;;
59054;SDS011;44845;51.444;7.460;2023-11-19T14:10:17;14.10;;;2.40;;
59054;SDS011;44845;51.444;7.460;2023-11-19T14:12:42;12.70;;;2.13;;
59054;SDS011;44845;51.444;7.460;2023-11-19T14:15:08;17.35;;;2.47;;
59054;SDS011;44845;51.444;7.460;2023-11-19T14:17:37;14.82;;;2.10;;
59054;SDS011;44845;51.444;7.460;2023-11-19T14:20:02;17.00;;;2.25;;
59054;SDS011;44845;51.444;7.460;2023-11-19T14:22:41;15.07;;;2.33;;
59054;SDS011;44845;51.444;7.460;2023-11-19T14:25:08;17.05;;;2.63;;
59054;SDS011;44845;51.444;7.460;2023-11-19T14:27:38;15.90;;;2.20;;
59054;SDS011;44845;51.444;7.460;2023-11-19T14:30:13;14.43;;;2.53;;
59054;SDS011;44845;51.444;7.460;2023-11-19T14:32:39;15.90;;;2.53;;
59054;SDS011;44845;51.444;7.460;2023-11-19T14:35:06;12.10;;;2.72;;
59054;SDS011;44845;51.444;7.460;2023-11-19T14:37:31;18.27;;;2.58;;
59054;SDS011;44845;51.444;7.460;2023-11-19T14:39:57;14.68;;;2.88;;
59054;SDS011;44845;51.444;7.460;2023-11-19T14:42:23;16.40;;;2.75;;
59054;SDS011;44845;51.444;7.460;2023-11-19T14:44:50;16.75;;;2.65;;
59054;SDS011;44845;51.444;7.460;2023-11-19T14:47:18;10.13;;;1.70;;
59054;SDS011;44845;51.444;7.460;2023-11-19T14:49:44;20.40;;;2.38;;
59054;SDS011;44845;51.444;7.460;2023-11-19T14:52:09;12.35;;;2.33;;
59054;SDS011;44845;51.444;7.460;2023-11-19T14:54:36;12.70;;;2.10;;
59054;SDS011;44845;51.444;7.460;2023-11-19T14:57:01;10.95;;;1.73;;
59054;SDS011;44845;51.444;7.460;2023-11-19T14:59:28;14.93;;;2.13;;
59054;SDS011;44845;51.444;7.460;2023-11-19T15:01:53;15.38;;;2.30;;